createdAt,value
2022-08-17T00:00:33.355Z,59.01
2022-08-17T00:03:17.972Z,58.93
2022-08-17T00:06:01.293Z,59.10
2022-08-17T00:08:35.838Z,59.37
2022-08-17T00:11:06.451Z,59.31
2022-08-17T00:13:42.746Z,59.18
2022-08-17T00:16:17.695Z,59.14
2022-08-17T00:19:02.128Z,58.97
2022-08-17T00:22:28.756Z,58.96
2022-08-17T00:24:21.518Z,58.76
2022-08-17T00:26:48.393Z,58.81
2022-08-17T00:29:20.016Z,58.76
2022-08-17T00:31:47.411Z,58.79
2022-08-17T00:34:14.295Z,58.89
2022-08-17T00:36:41.121Z,58.81
2022-08-17T00:39:07.964Z,58.75
2022-08-17T00:41:36.138Z,58.67
2022-08-17T00:44:09.937Z,58.70
2022-08-17T00:46:40.680Z,58.40
2022-08-17T00:49:09.782Z,58.75
2022-08-17T00:52:11.646Z,58.68
2022-08-17T00:54:41.938Z,58.51
2022-08-17T00:57:13.367Z,58.53
2022-08-17T00:59:55.906Z,58.80
2022-08-17T01:02:34.998Z,58.70
2022-08-17T01:05:12.822Z,58.65
2022-08-17T01:07:39.946Z,58.21
2022-08-17T01:10:57.229Z,58.59
2022-08-17T01:12:57.088Z,58.56
2022-08-17T01:15:24.009Z,58.56
2022-08-17T01:17:50.953Z,58.66
2022-08-17T01:20:17.881Z,58.63
2022-08-17T01:22:44.789Z,58.62
2022-08-17T01:25:12.950Z,58.53
2022-08-17T01:27:41.130Z,58.56
2022-08-17T01:30:58.823Z,58.46
2022-08-17T01:32:58.880Z,58.36
2022-08-17T01:35:25.921Z,58.58
2022-08-17T01:37:53.143Z,58.40
2022-08-17T01:40:23.964Z,58.37
2022-08-17T01:43:01.747Z,58.37
2022-08-17T01:45:33.966Z,58.50
2022-08-17T01:48:01.506Z,58.54
2022-08-17T01:50:32.472Z,58.39
2022-08-17T01:53:07.286Z,58.60
2022-08-17T01:55:40.182Z,58.52
2022-08-17T01:58:09.993Z,58.43
2022-08-17T02:01:00.196Z,58.34
2022-08-17T02:03:29.760Z,58.32
2022-08-17T02:05:57.436Z,58.17
2022-08-17T02:08:39.576Z,58.36
2022-08-17T02:11:16.005Z,58.43
2022-08-17T02:13:45.467Z,58.39
2022-08-17T02:16:13.301Z,58.40
2022-08-17T02:18:40.629Z,58.35
2022-08-17T02:21:08.819Z,58.56
2022-08-17T02:23:39.374Z,58.17
2022-08-17T02:26:07.298Z,58.23
2022-08-17T02:28:34.449Z,58.47
2022-08-17T02:31:10.687Z,58.31
2022-08-17T02:33:42.838Z,58.23
2022-08-17T02:36:13.292Z,58.43
2022-08-17T02:38:41.444Z,58.41
2022-08-17T02:41:08.847Z,57.99
2022-08-17T02:43:35.775Z,58.05
2022-08-17T02:46:02.708Z,58.25
2022-08-17T02:48:31.651Z,58.04
2022-08-17T02:51:00.434Z,58.46
2022-08-17T02:53:28.033Z,58.16
2022-08-17T02:56:02.622Z,58.19
2022-08-17T02:58:35.725Z,58.16
2022-08-17T03:01:06.720Z,58.24
2022-08-17T03:03:34.154Z,58.17
2022-08-17T03:06:01.410Z,58.25
2022-08-17T03:08:28.289Z,58.12
2022-08-17T03:10:55.411Z,58.12
2022-08-17T03:13:22.797Z,58.23
2022-08-17T03:15:49.866Z,58.46
2022-08-17T03:18:24.932Z,58.33
2022-08-17T03:20:58.332Z,58.32
2022-08-17T03:23:26.384Z,58.33
2022-08-17T03:25:55.622Z,58.18
2022-08-17T03:28:24.013Z,58.52
2022-08-17T03:30:52.345Z,58.43
2022-08-17T03:33:20.193Z,58.37
2022-08-17T03:35:47.575Z,58.08
2022-08-17T03:38:15.911Z,58.39
2022-08-17T03:40:56.487Z,58.40
2022-08-17T03:43:31.861Z,58.48
2022-08-17T03:46:28.123Z,58.58
2022-08-17T03:49:21.681Z,58.79
2022-08-17T03:52:07.454Z,58.71
2022-08-17T03:54:52.991Z,58.77
2022-08-17T03:57:19.963Z,59.02
2022-08-17T03:59:48.005Z,58.84
2022-08-17T04:02:31.107Z,58.68
2022-08-17T04:04:58.760Z,58.78
2022-08-17T04:07:27.793Z,59.04
2022-08-17T04:09:54.999Z,58.79
2022-08-17T04:12:23.739Z,59.04
2022-08-17T04:14:52.065Z,59.27
2022-08-17T04:17:27.648Z,59.14
2022-08-17T04:19:55.952Z,59.08
2022-08-17T04:22:32.421Z,59.07
2022-08-17T04:25:15.847Z,59.25
2022-08-17T04:27:42.718Z,59.53
2022-08-17T04:30:10.331Z,59.46
2022-08-17T04:33:04.429Z,59.66
2022-08-17T04:35:36.742Z,59.73
2022-08-17T04:38:04.303Z,59.37
2022-08-17T04:40:49.391Z,59.65
2022-08-17T04:43:21.745Z,60.09
2022-08-17T04:45:56.562Z,59.79
2022-08-17T04:48:33.400Z,59.96
2022-08-17T04:51:06.754Z,59.80
2022-08-17T04:53:33.708Z,59.72
2022-08-17T04:56:00.565Z,59.77
2022-08-17T04:58:27.531Z,59.77
2022-08-17T05:00:54.402Z,59.63
2022-08-17T05:03:21.400Z,59.74
2022-08-17T05:05:51.492Z,59.57
2022-08-17T05:08:20.354Z,59.55
2022-08-17T05:10:48.318Z,59.48
2022-08-17T05:13:18.054Z,58.36
2022-08-17T05:15:47.592Z,58.41
2022-08-17T05:18:16.000Z,58.17
2022-08-17T05:20:43.657Z,58.96
2022-08-17T05:23:15.191Z,59.52
2022-08-17T05:25:47.352Z,59.58
2022-08-17T05:28:16.201Z,59.56
2022-08-17T05:30:44.462Z,59.88
2022-08-17T05:33:23.864Z,59.73
2022-08-17T05:35:53.257Z,60.00
2022-08-17T05:38:21.990Z,56.57
2022-08-17T05:40:49.642Z,53.31
2022-08-17T05:43:24.104Z,52.61
2022-08-17T05:45:56.782Z,56.97
2022-08-17T05:48:35.410Z,57.47
2022-08-17T05:51:07.069Z,57.46
2022-08-17T05:53:51.187Z,57.74
2022-08-17T05:56:29.654Z,57.78
2022-08-17T05:59:35.880Z,58.11
2022-08-17T06:02:12.927Z,57.97
2022-08-17T06:04:57.733Z,58.10
2022-08-17T06:07:36.813Z,58.21
2022-08-17T06:10:32.525Z,57.90
2022-08-17T06:13:12.068Z,58.56
2022-08-17T06:16:04.863Z,58.58
2022-08-17T06:19:04.110Z,58.43
2022-08-17T06:21:38.315Z,58.51
2022-08-17T06:24:24.241Z,58.41
2022-08-17T06:26:53.751Z,57.99
2022-08-17T06:29:37.736Z,52.36
2022-08-17T06:32:09.171Z,50.07
2022-08-17T06:34:39.749Z,50.12
2022-08-17T06:37:19.135Z,49.77
2022-08-17T06:40:01.048Z,49.17
2022-08-17T06:42:59.870Z,48.68
2022-08-17T06:45:56.588Z,47.85
2022-08-17T06:48:39.257Z,47.97
2022-08-17T06:51:15.524Z,48.24
2022-08-17T06:53:52.178Z,49.43
2022-08-17T06:56:53.006Z,51.70
2022-08-17T06:59:54.752Z,53.11
2022-08-17T07:02:51.229Z,54.15
2022-08-17T07:05:24.588Z,54.42
2022-08-17T07:08:03.096Z,55.16
2022-08-17T07:10:39.627Z,55.35
2022-08-17T07:13:29.704Z,55.70
2022-08-17T07:16:13.562Z,55.76
2022-08-17T07:18:41.173Z,56.11
2022-08-17T07:21:26.772Z,56.31
2022-08-17T07:24:07.159Z,56.95
2022-08-17T07:26:34.459Z,57.04
2022-08-17T07:29:02.807Z,57.05
2022-08-17T07:31:31.906Z,56.54
2022-08-17T07:34:07.222Z,57.10
2022-08-17T07:36:34.961Z,57.17
2022-08-17T07:39:05.014Z,57.51
2022-08-17T07:41:53.151Z,57.28
2022-08-17T07:44:25.063Z,57.50
2022-08-17T07:47:13.332Z,57.98
2022-08-17T07:49:43.084Z,58.01
2022-08-17T07:52:50.895Z,57.79
2022-08-17T07:55:35.772Z,58.21
2022-08-17T07:58:03.739Z,57.85
2022-08-17T08:00:32.742Z,57.87
2022-08-17T08:03:04.895Z,57.79
2022-08-17T08:05:49.330Z,57.87
2022-08-17T08:08:30.799Z,57.99
2022-08-17T08:11:10.427Z,57.86
2022-08-17T08:13:42.907Z,57.98
2022-08-17T08:16:21.033Z,58.04
2022-08-17T08:18:56.742Z,58.16
2022-08-17T08:21:37.076Z,57.98
2022-08-17T08:24:22.041Z,58.10
2022-08-17T08:27:00.995Z,58.13
2022-08-17T08:29:45.148Z,58.13
2022-08-17T08:32:39.693Z,58.22
2022-08-17T08:35:18.681Z,58.20
2022-08-17T08:38:10.259Z,58.06
2022-08-17T08:41:01.737Z,57.90
2022-08-17T08:44:01.063Z,58.35
2022-08-17T08:46:36.967Z,58.30
2022-08-17T08:49:39.067Z,58.09
2022-08-17T08:52:28.386Z,58.20
2022-08-17T08:55:21.105Z,57.90
2022-08-17T08:58:32.068Z,58.07
2022-08-17T09:01:00.830Z,58.20
2022-08-17T09:03:54.274Z,58.11
2022-08-17T09:06:48.609Z,58.19
2022-08-17T09:09:43.524Z,57.80
2022-08-17T09:12:38.503Z,58.08
2022-08-17T09:15:35.217Z,58.20
2022-08-17T09:18:59.019Z,58.10
2022-08-17T09:20:58.307Z,58.28
2022-08-17T09:23:33.924Z,58.39
2022-08-17T09:26:13.235Z,58.42
2022-08-17T09:28:47.278Z,58.35
2022-08-17T09:31:26.822Z,58.42
2022-08-17T09:34:01.732Z,57.79
2022-08-17T09:36:42.009Z,57.27
2022-08-17T09:39:31.575Z,56.81
2022-08-17T09:42:19.361Z,56.32
2022-08-17T09:45:34.077Z,56.47
2022-08-17T09:48:11.799Z,55.58
2022-08-17T09:51:19.983Z,56.32
2022-08-17T09:53:47.451Z,52.83
2022-08-17T09:56:29.973Z,50.13
2022-08-17T09:59:05.939Z,48.60
2022-08-17T10:01:40.063Z,47.54
2022-08-17T10:04:12.977Z,47.32
2022-08-17T10:07:15.873Z,46.67
2022-08-17T10:09:45.453Z,46.91
2022-08-17T10:12:31.930Z,46.57
2022-08-17T10:15:18.200Z,45.62
2022-08-17T10:17:56.885Z,45.46
2022-08-17T10:20:31.591Z,45.37
2022-08-17T10:23:32.624Z,44.39
2022-08-17T10:26:27.771Z,43.63
2022-08-17T10:29:20.060Z,43.59
2022-08-17T10:31:56.516Z,43.62
2022-08-17T10:34:44.540Z,43.94
2022-08-17T10:37:20.874Z,42.60
2022-08-17T10:40:02.885Z,43.20
2022-08-17T10:42:55.342Z,42.22
2022-08-17T10:45:34.268Z,42.91
2022-08-17T10:48:07.583Z,42.73
2022-08-17T10:51:03.334Z,43.29
2022-08-17T10:53:33.221Z,43.15
2022-08-17T10:56:12.832Z,43.26
2022-08-17T10:58:57.849Z,42.88
2022-08-17T11:01:38.676Z,42.21
2022-08-17T11:04:18.569Z,43.19
2022-08-17T11:07:12.724Z,43.80
2022-08-17T11:10:17.509Z,44.07
2022-08-17T11:12:56.830Z,42.79
2022-08-17T11:15:46.298Z,43.09
2022-08-17T11:18:41.163Z,42.52
2022-08-17T11:21:28.177Z,43.00
2022-08-17T11:24:11.742Z,43.70
2022-08-17T11:26:46.965Z,43.32
2022-08-17T11:29:25.576Z,44.21
2022-08-17T11:32:47.533Z,43.32
2022-08-17T11:35:20.913Z,43.66
2022-08-17T11:37:56.906Z,44.63
2022-08-17T11:40:46.899Z,43.78
2022-08-17T11:43:46.322Z,43.55
2022-08-17T11:46:53.403Z,43.69
2022-08-17T11:50:00.657Z,43.72
2022-08-17T11:52:47.244Z,43.60
2022-08-17T11:55:35.793Z,43.73
2022-08-17T11:58:37.741Z,44.22
2022-08-17T12:01:27.261Z,43.77
2022-08-17T12:04:15.957Z,43.57
2022-08-17T12:06:52.083Z,44.25
2022-08-17T12:09:26.702Z,44.46
2022-08-17T12:12:12.432Z,45.82
2022-08-17T12:17:39.687Z,44.38
2022-08-17T12:20:30.288Z,45.60
2022-08-17T12:23:30.443Z,44.60
2022-08-17T12:26:08.236Z,44.18
2022-08-17T12:28:38.975Z,44.38
2022-08-17T12:31:25.794Z,44.51
2022-08-17T12:33:53.052Z,45.71
2022-08-17T12:36:31.289Z,45.14
2022-08-17T12:39:14.071Z,44.83
2022-08-17T12:41:45.276Z,44.61
2022-08-17T12:44:12.550Z,45.08
2022-08-17T12:46:55.202Z,45.07
2022-08-17T12:49:26.847Z,43.67
2022-08-17T12:52:13.834Z,44.00
2022-08-17T12:54:59.914Z,44.59
2022-08-17T12:57:41.318Z,44.63
2022-08-17T13:00:47.421Z,45.31
2022-08-17T13:03:25.765Z,46.57
2022-08-17T13:05:52.696Z,47.72
2022-08-17T13:08:24.847Z,47.54
2022-08-17T13:11:00.945Z,47.58
2022-08-17T13:13:36.943Z,47.85
2022-08-17T13:16:09.931Z,48.31
2022-08-17T13:18:39.278Z,48.85
2022-08-17T13:21:12.890Z,49.18
2022-08-17T13:23:40.024Z,49.23
2022-08-17T13:26:18.213Z,49.37
2022-08-17T13:28:52.139Z,49.71
2022-08-17T13:31:52.108Z,49.48
2022-08-17T13:34:27.259Z,45.07
2022-08-17T13:37:35.678Z,45.05
2022-08-17T13:40:11.991Z,44.61
2022-08-17T13:42:52.086Z,44.80
2022-08-17T13:45:34.799Z,44.82
2022-08-17T13:48:13.799Z,45.47
2022-08-17T13:51:00.488Z,45.66
2022-08-17T13:53:31.085Z,46.04
2022-08-17T13:56:33.233Z,46.24
2022-08-17T13:59:00.702Z,45.24
2022-08-17T14:01:33.607Z,45.73
2022-08-17T14:04:23.042Z,44.55
2022-08-17T14:07:14.071Z,44.49
2022-08-17T14:09:47.502Z,45.59
2022-08-17T14:12:20.428Z,44.97
2022-08-17T14:14:48.111Z,45.40
2022-08-17T14:17:15.417Z,45.18
2022-08-17T14:19:42.480Z,45.07
2022-08-17T14:22:24.000Z,44.74
2022-08-17T14:24:51.716Z,45.09
2022-08-17T14:27:20.697Z,45.06
2022-08-17T14:29:48.583Z,45.74
2022-08-17T14:32:25.061Z,45.75
2022-08-17T14:34:52.796Z,45.62
2022-08-17T14:37:21.527Z,45.66
2022-08-17T14:39:48.858Z,45.15
2022-08-17T14:42:16.774Z,45.22
2022-08-17T14:44:44.053Z,45.65
2022-08-17T14:47:16.104Z,45.22
2022-08-17T14:49:47.729Z,45.64
2022-08-17T14:52:22.094Z,45.47
2022-08-17T14:54:51.787Z,44.52
2022-08-17T14:57:34.413Z,44.70
2022-08-17T15:00:02.487Z,45.55
2022-08-17T15:02:31.102Z,45.70
2022-08-17T15:05:06.161Z,46.04
2022-08-17T15:07:33.309Z,46.47
2022-08-17T15:10:02.535Z,46.45
2022-08-17T15:12:34.043Z,46.70
2022-08-17T15:15:05.774Z,47.38
2022-08-17T15:17:54.708Z,47.73
2022-08-17T15:20:25.454Z,48.07
2022-08-17T15:23:01.501Z,48.36
2022-08-17T15:25:32.058Z,48.40
2022-08-17T15:28:00.797Z,48.84
2022-08-17T15:30:28.602Z,48.92
2022-08-17T15:32:58.424Z,48.16
2022-08-17T15:35:29.098Z,47.47
2022-08-17T15:38:06.192Z,47.23
2022-08-17T15:40:40.396Z,46.35
2022-08-17T15:43:22.043Z,45.90
2022-08-17T15:46:03.517Z,46.73
2022-08-17T15:48:45.108Z,47.24
2022-08-17T15:51:30.391Z,46.40
2022-08-17T15:54:17.258Z,46.06
2022-08-17T15:56:46.953Z,46.06
2022-08-17T15:59:14.166Z,46.69
2022-08-17T16:02:29.906Z,47.33
2022-08-17T16:04:30.894Z,47.65
2022-08-17T16:07:00.092Z,47.83
2022-08-17T16:09:28.320Z,48.08
2022-08-17T16:11:56.324Z,48.37
2022-08-17T16:14:30.322Z,48.38
2022-08-17T16:17:02.351Z,48.94
2022-08-17T16:19:30.115Z,48.77
2022-08-17T16:21:57.773Z,49.49
2022-08-17T16:24:26.157Z,49.71
2022-08-17T16:26:55.760Z,49.93
2022-08-17T16:29:24.173Z,49.75
2022-08-17T16:31:51.693Z,48.51
2022-08-17T16:34:19.340Z,48.05
2022-08-17T16:36:50.562Z,47.40
2022-08-17T16:39:29.382Z,46.99
2022-08-17T16:41:57.850Z,47.23
2022-08-17T16:44:29.366Z,46.65
2022-08-17T16:46:57.773Z,46.22
2022-08-17T16:49:36.573Z,46.13
2022-08-17T16:52:10.855Z,46.34
2022-08-17T16:54:42.162Z,46.31
2022-08-17T16:57:10.668Z,46.92
2022-08-17T16:59:40.734Z,46.97
2022-08-17T17:02:14.240Z,47.28
2022-08-17T17:05:22.776Z,47.40
2022-08-17T17:07:50.082Z,47.63
2022-08-17T17:10:23.357Z,47.22
2022-08-17T17:13:01.067Z,46.83
2022-08-17T17:15:47.659Z,46.96
2022-08-17T17:18:16.943Z,47.13
2022-08-17T17:20:52.661Z,47.27
2022-08-17T17:23:36.532Z,47.32
2022-08-17T17:26:08.215Z,47.39
2022-08-17T17:28:43.451Z,47.20
2022-08-17T17:31:18.094Z,47.44
2022-08-17T17:34:04.116Z,47.64
2022-08-17T17:36:45.770Z,48.31
2022-08-17T17:39:17.829Z,48.40
2022-08-17T17:41:52.055Z,48.36
2022-08-17T17:44:26.000Z,48.32
2022-08-17T17:46:57.102Z,48.22
2022-08-17T17:49:25.172Z,48.33
2022-08-17T17:52:19.002Z,48.40
2022-08-17T17:55:14.550Z,48.98
2022-08-17T17:57:56.794Z,48.76
2022-08-17T18:00:26.580Z,48.99
2022-08-17T18:02:59.181Z,48.83
2022-08-17T18:05:56.558Z,48.73
2022-08-17T18:08:43.275Z,48.58
2022-08-17T18:11:15.670Z,48.31
2022-08-17T18:14:03.952Z,48.19
2022-08-17T18:16:33.253Z,48.47
2022-08-17T18:19:01.237Z,48.61
2022-08-17T18:21:44.726Z,49.02
2022-08-17T18:24:13.430Z,49.15
2022-08-17T18:26:49.651Z,49.57
2022-08-17T18:29:36.871Z,49.67
2022-08-17T18:32:27.576Z,49.33
2022-08-17T18:34:57.918Z,49.46
2022-08-17T18:37:40.596Z,49.91
2022-08-17T18:40:18.124Z,49.85
2022-08-17T18:43:27.132Z,50.36
2022-08-17T18:45:58.751Z,51.51
2022-08-17T18:48:40.293Z,52.27
2022-08-17T18:51:42.269Z,53.37
2022-08-17T18:54:15.462Z,53.68
2022-08-17T18:56:49.158Z,53.03
2022-08-17T18:59:39.813Z,52.76
2022-08-17T19:02:37.311Z,53.16
2022-08-17T19:05:11.256Z,52.67
2022-08-17T19:07:47.748Z,52.59
2022-08-17T19:10:29.757Z,52.57
2022-08-17T19:13:24.084Z,52.30
2022-08-17T19:16:14.301Z,52.22
2022-08-17T19:18:48.816Z,51.67
2022-08-17T19:21:22.930Z,50.74
2022-08-17T19:23:53.943Z,50.35
2022-08-17T19:26:54.647Z,50.28
2022-08-17T19:29:27.378Z,50.19
2022-08-17T19:31:59.505Z,50.07
2022-08-17T19:34:36.071Z,49.76
2022-08-17T19:37:15.964Z,50.74
2022-08-17T19:39:55.338Z,50.04
2022-08-17T19:42:40.099Z,50.21
2022-08-17T19:45:21.072Z,49.58
2022-08-17T19:48:07.083Z,50.27
2022-08-17T19:51:11.948Z,50.38
2022-08-17T19:54:07.362Z,50.69
2022-08-17T19:57:02.566Z,50.49
2022-08-17T20:00:08.719Z,50.53
2022-08-17T20:03:00.133Z,50.86
2022-08-17T20:06:08.723Z,50.57
2022-08-17T20:08:31.118Z,50.50
2022-08-17T20:11:10.190Z,50.22
2022-08-17T20:13:49.975Z,50.17
2022-08-17T20:16:20.076Z,49.42
2022-08-17T20:18:59.309Z,49.43
2022-08-17T20:21:35.470Z,49.38
2022-08-17T20:24:25.849Z,49.70
2022-08-17T20:27:13.914Z,49.66
2022-08-17T20:30:02.529Z,49.46
2022-08-17T20:32:36.150Z,49.24
2022-08-17T20:35:31.093Z,49.27
2022-08-17T20:38:31.931Z,49.15
2022-08-17T20:41:05.372Z,49.26
2022-08-17T20:43:37.823Z,49.21
2022-08-17T20:46:33.374Z,49.03
2022-08-17T20:49:32.518Z,49.06
2022-08-17T20:52:17.193Z,49.05
2022-08-17T20:54:51.703Z,48.97
2022-08-17T20:57:37.162Z,48.75
2022-08-17T21:00:16.903Z,48.95
2022-08-17T21:02:50.039Z,49.23
2022-08-17T21:05:36.698Z,49.12
2022-08-17T21:08:15.959Z,49.41
2022-08-17T21:10:45.956Z,49.02
2022-08-17T21:13:15.430Z,49.14
2022-08-17T21:15:49.337Z,49.21
2022-08-17T21:18:41.757Z,49.28
2022-08-17T21:21:18.158Z,49.42
2022-08-17T21:23:59.391Z,49.65
2022-08-17T21:26:50.491Z,49.75
2022-08-17T21:29:32.592Z,49.81
2022-08-17T21:32:05.377Z,49.89
2022-08-17T21:34:39.830Z,49.90
2022-08-17T21:37:50.497Z,49.98
2022-08-17T21:40:24.337Z,50.60
2022-08-17T21:42:58.555Z,50.40
2022-08-17T21:45:35.850Z,50.51
2022-08-17T21:48:18.053Z,50.84
2022-08-17T21:50:58.127Z,51.03
2022-08-17T21:53:34.492Z,51.28
2022-08-17T21:56:01.738Z,52.02
2022-08-17T21:58:40.792Z,52.31
2022-08-17T22:01:25.011Z,52.24
2022-08-17T22:04:26.537Z,52.47
2022-08-17T22:06:57.103Z,52.28
2022-08-17T22:09:41.678Z,52.32
2022-08-17T22:12:18.380Z,52.21
2022-08-17T22:15:07.626Z,52.15
2022-08-17T22:17:45.389Z,52.20
2022-08-17T22:20:16.028Z,52.29
2022-08-17T22:23:04.432Z,52.38
2022-08-17T22:25:36.304Z,52.92
2022-08-17T22:28:06.120Z,53.00
2022-08-17T22:30:59.618Z,52.99
2022-08-17T22:33:44.371Z,52.71
2022-08-17T22:36:29.450Z,52.91
2022-08-17T22:39:26.668Z,52.70
2022-08-17T22:41:59.392Z,52.72
2022-08-17T22:44:33.783Z,52.68
2022-08-17T22:47:17.279Z,52.81
2022-08-17T22:49:58.715Z,53.07
2022-08-17T22:52:32.609Z,53.24
2022-08-17T22:55:26.357Z,53.52
2022-08-17T22:58:11.961Z,53.30
2022-08-17T23:00:48.496Z,53.79
2022-08-17T23:03:18.137Z,53.65
2022-08-17T23:06:03.997Z,53.93
2022-08-17T23:08:33.998Z,54.12
2022-08-17T23:11:01.385Z,54.17
2022-08-17T23:13:28.895Z,54.27
2022-08-17T23:15:57.961Z,54.44
2022-08-17T23:18:25.494Z,54.39
2022-08-17T23:20:52.406Z,54.55
2022-08-17T23:23:23.397Z,54.13
2022-08-17T23:25:51.020Z,54.37
2022-08-17T23:28:19.135Z,54.50
2022-08-17T23:30:48.738Z,54.44
2022-08-17T23:33:21.958Z,54.42
2022-08-17T23:35:48.875Z,54.20
2022-08-17T23:38:15.733Z,54.63
2022-08-17T23:40:42.719Z,54.46
2022-08-17T23:43:25.325Z,54.76
2022-08-17T23:45:55.600Z,54.92
2022-08-17T23:48:36.110Z,55.08
2022-08-17T23:51:19.179Z,55.05
2022-08-17T23:53:50.581Z,55.07
2022-08-17T23:56:23.769Z,55.08
2022-08-17T23:58:51.377Z,55.26
